RYR2VG EGBB-LFBO
Flight info
| Callsign | RYR2VG |
|---|---|
| Flight time | 1h 31m |
| Altitude | 35000 |
| Route | COWLY UL612 MID L151 SITET UN859 AMB DCT NARAK |
| Aircraft | B738/M-SDE2E3FGHIRWXY/LB1 |
Departure
| Time | 2026-04-30 13:27 |
|---|---|
| Airport | Birmingham Airport (EGBB) |
Arrival
| Time | 2026-04-30 14:58 |
|---|---|
| Airport | Toulouse-Blagnac Airport (LFBO) |
| Time | Latitude | Longitude | Altitude | Speed | Heading |
|---|---|---|---|---|---|
| 2026-04-30 13:04 | 52.45176 | -1.73746 | 322 ft | 0 kts | 326° |
| 2026-04-30 13:18 | 52.45152 | -1.73720 | 319 ft | 3 kts | 326° |
| 2026-04-30 13:18 | 52.45137 | -1.73700 | 320 ft | 3 kts | 305° |
| 2026-04-30 13:19 | 52.45130 | -1.73673 | 320 ft | 3 kts | 269° |
| 2026-04-30 13:19 | 52.45133 | -1.73642 | 319 ft | 3 kts | 242° |
| 2026-04-30 13:19 | 52.45139 | -1.73627 | 320 ft | 0 kts | 236° |
| 2026-04-30 13:19 | 52.45136 | -1.73633 | 320 ft | 0 kts | 236° |
| 2026-04-30 13:22 | 52.45135 | -1.73636 | 320 ft | 2 kts | 236° |
| 2026-04-30 13:22 | 52.45121 | -1.73669 | 320 ft | 7 kts | 235° |
| 2026-04-30 13:22 | 52.45160 | -1.73843 | 322 ft | 14 kts | 326° |
| 2026-04-30 13:23 | 52.45259 | -1.73953 | 322 ft | 17 kts | 326° |
| 2026-04-30 13:23 | 52.45387 | -1.74287 | 320 ft | 22 kts | 297° |
| 2026-04-30 13:24 | 52.45523 | -1.74628 | 322 ft | 16 kts | 325° |
| 2026-04-30 13:24 | 52.45827 | -1.74965 | 308 ft | 32 kts | 326° |
| 2026-04-30 13:25 | 52.46146 | -1.75320 | 302 ft | 17 kts | 327° |
| 2026-04-30 13:25 | 52.46219 | -1.75465 | 303 ft | 7 kts | 234° |
| 2026-04-30 13:26 | 52.46111 | -1.75607 | 310 ft | 7 kts | 147° |
| 2026-04-30 13:26 | 52.45611 | -1.75051 | 322 ft | 105 kts | 146° |
| 2026-04-30 13:27 | 52.43998 | -1.73238 | 1198 ft | 149 kts | 144° |
| 2026-04-30 13:28 | 52.41380 | -1.70332 | 3619 ft | 163 kts | 151° |
| 2026-04-30 13:28 | 52.38982 | -1.69241 | 4778 ft | 190 kts | 163° |
| 2026-04-30 13:28 | 52.37689 | -1.68612 | 5370 ft | 198 kts | 155° |
| 2026-04-30 13:29 | 52.35123 | -1.66471 | 6679 ft | 217 kts | 149° |
| 2026-04-30 13:29 | 52.32548 | -1.63801 | 8197 ft | 222 kts | 147° |
| 2026-04-30 13:30 | 52.28334 | -1.59430 | 9854 ft | 262 kts | 150° |
| 2026-04-30 13:31 | 52.24830 | -1.56542 | 10574 ft | 302 kts | 154° |
| 2026-04-30 13:31 | 52.18854 | -1.51841 | 12394 ft | 325 kts | 153° |
| 2026-04-30 13:32 | 52.14742 | -1.48570 | 13925 ft | 332 kts | 153° |
| 2026-04-30 13:32 | 52.10562 | -1.45247 | 15367 ft | 339 kts | 154° |
| 2026-04-30 13:33 | 52.06213 | -1.41949 | 16849 ft | 346 kts | 155° |
| 2026-04-30 13:33 | 52.01824 | -1.38652 | 18236 ft | 353 kts | 155° |
| 2026-04-30 13:34 | 51.99582 | -1.36964 | 18910 ft | 356 kts | 155° |
| 2026-04-30 13:34 | 51.92773 | -1.31837 | 20874 ft | 363 kts | 154° |
| 2026-04-30 13:35 | 51.90465 | -1.30100 | 21507 ft | 366 kts | 154° |
| 2026-04-30 13:35 | 51.85835 | -1.26619 | 22707 ft | 371 kts | 154° |
| 2026-04-30 13:36 | 51.81110 | -1.23076 | 23882 ft | 377 kts | 154° |
| 2026-04-30 13:36 | 51.78728 | -1.21292 | 24397 ft | 378 kts | 154° |
| 2026-04-30 13:36 | 51.73929 | -1.17706 | 25405 ft | 382 kts | 154° |
| 2026-04-30 13:37 | 51.71508 | -1.15899 | 25867 ft | 385 kts | 154° |
| 2026-04-30 13:37 | 51.66623 | -1.12260 | 26773 ft | 389 kts | 154° |
| 2026-04-30 13:38 | 51.61671 | -1.08581 | 27647 ft | 394 kts | 154° |
| 2026-04-30 13:38 | 51.59170 | -1.06726 | 28053 ft | 397 kts | 154° |
| 2026-04-30 13:38 | 51.54159 | -1.03017 | 28866 ft | 401 kts | 154° |
| 2026-04-30 13:39 | 51.49098 | -0.99281 | 30015 ft | 397 kts | 154° |
| 2026-04-30 13:39 | 51.44099 | -0.95598 | 30981 ft | 394 kts | 154° |
| 2026-04-30 13:40 | 51.41599 | -0.93760 | 31285 ft | 397 kts | 154° |
| 2026-04-30 13:40 | 51.39078 | -0.91908 | 31640 ft | 398 kts | 154° |
| 2026-04-30 13:40 | 51.36569 | -0.90067 | 32108 ft | 396 kts | 154° |
| 2026-04-30 13:40 | 51.34065 | -0.88233 | 32588 ft | 394 kts | 154° |
| 2026-04-30 13:41 | 51.31574 | -0.86410 | 32983 ft | 394 kts | 154° |
| 2026-04-30 13:41 | 51.29072 | -0.84581 | 33322 ft | 395 kts | 154° |
| 2026-04-30 13:41 | 51.26565 | -0.82751 | 33721 ft | 395 kts | 154° |
| 2026-04-30 13:41 | 51.24104 | -0.80957 | 34146 ft | 393 kts | 154° |
| 2026-04-30 13:42 | 51.21614 | -0.79144 | 34438 ft | 395 kts | 154° |
| 2026-04-30 13:42 | 51.19111 | -0.77323 | 34671 ft | 396 kts | 154° |
| 2026-04-30 13:42 | 51.14080 | -0.73669 | 35148 ft | 398 kts | 154° |
| 2026-04-30 13:43 | 51.08993 | -0.69983 | 35183 ft | 402 kts | 155° |
| 2026-04-30 13:43 | 51.03938 | -0.66332 | 35174 ft | 395 kts | 155° |
| 2026-04-30 13:44 | 50.98928 | -0.62720 | 35183 ft | 395 kts | 155° |
| 2026-04-30 13:44 | 50.93915 | -0.59115 | 35184 ft | 396 kts | 155° |
| 2026-04-30 13:45 | 50.86406 | -0.53730 | 35194 ft | 397 kts | 155° |
| 2026-04-30 13:46 | 50.81357 | -0.50120 | 35183 ft | 398 kts | 155° |
| 2026-04-30 13:46 | 50.76308 | -0.46519 | 35182 ft | 398 kts | 155° |
| 2026-04-30 13:47 | 50.71253 | -0.42923 | 35185 ft | 399 kts | 155° |
| 2026-04-30 13:47 | 50.66188 | -0.39327 | 35178 ft | 399 kts | 155° |
| 2026-04-30 13:48 | 50.61123 | -0.35741 | 35175 ft | 399 kts | 155° |
| 2026-04-30 13:48 | 50.56054 | -0.32160 | 35170 ft | 399 kts | 155° |
| 2026-04-30 13:49 | 50.51017 | -0.28609 | 35163 ft | 399 kts | 155° |
| 2026-04-30 13:49 | 50.45948 | -0.25045 | 35164 ft | 399 kts | 155° |
| 2026-04-30 13:50 | 50.40872 | -0.21484 | 35161 ft | 399 kts | 155° |
| 2026-04-30 13:50 | 50.33251 | -0.16153 | 35156 ft | 399 kts | 155° |
| 2026-04-30 13:51 | 50.28209 | -0.12636 | 35150 ft | 400 kts | 155° |
| 2026-04-30 13:51 | 50.23092 | -0.09076 | 35147 ft | 400 kts | 155° |
| 2026-04-30 13:52 | 50.18044 | -0.05570 | 35144 ft | 400 kts | 155° |
| 2026-04-30 13:52 | 50.12949 | -0.02040 | 35139 ft | 400 kts | 155° |
| 2026-04-30 13:53 | 50.07752 | 0.01110 | 35142 ft | 401 kts | 162° |
| 2026-04-30 13:53 | 50.02353 | 0.03349 | 35132 ft | 402 kts | 164° |
| 2026-04-30 13:54 | 49.96924 | 0.05539 | 35136 ft | 403 kts | 163° |
| 2026-04-30 13:54 | 49.91534 | 0.07751 | 35127 ft | 403 kts | 163° |
| 2026-04-30 13:55 | 49.86106 | 0.10003 | 35125 ft | 404 kts | 163° |
| 2026-04-30 13:55 | 49.80670 | 0.12264 | 35125 ft | 405 kts | 163° |
| 2026-04-30 13:56 | 49.75223 | 0.14527 | 35125 ft | 405 kts | 163° |
| 2026-04-30 13:56 | 49.69774 | 0.16785 | 35124 ft | 406 kts | 163° |
| 2026-04-30 13:57 | 49.64301 | 0.19048 | 35132 ft | 407 kts | 163° |
| 2026-04-30 13:57 | 49.58862 | 0.21291 | 35130 ft | 407 kts | 163° |
| 2026-04-30 13:58 | 49.50642 | 0.24671 | 35128 ft | 408 kts | 164° |
| 2026-04-30 13:59 | 49.45142 | 0.26926 | 35130 ft | 408 kts | 164° |
| 2026-04-30 13:59 | 49.39656 | 0.29170 | 35129 ft | 408 kts | 164° |
| 2026-04-30 14:00 | 49.34169 | 0.31410 | 35131 ft | 408 kts | 164° |
| 2026-04-30 14:00 | 49.25930 | 0.34763 | 35118 ft | 409 kts | 164° |
| 2026-04-30 14:01 | 49.20466 | 0.36980 | 35119 ft | 409 kts | 164° |
| 2026-04-30 14:01 | 49.14954 | 0.39212 | 35111 ft | 409 kts | 164° |
| 2026-04-30 14:02 | 49.09442 | 0.41438 | 35101 ft | 410 kts | 164° |
| 2026-04-30 14:02 | 49.03926 | 0.43661 | 35099 ft | 410 kts | 165° |
| 2026-04-30 14:03 | 48.98437 | 0.45867 | 35111 ft | 410 kts | 164° |
| 2026-04-30 14:03 | 48.92917 | 0.48082 | 35105 ft | 410 kts | 164° |
| 2026-04-30 14:04 | 48.88282 | 0.49938 | 35095 ft | 410 kts | 164° |
| 2026-04-30 14:04 | 48.82798 | 0.52128 | 35098 ft | 410 kts | 164° |
| 2026-04-30 14:05 | 48.77281 | 0.54327 | 35100 ft | 410 kts | 164° |
| 2026-04-30 14:05 | 48.71759 | 0.56523 | 35094 ft | 410 kts | 164° |
| 2026-04-30 14:06 | 48.63491 | 0.59802 | 35072 ft | 409 kts | 164° |
| 2026-04-30 14:07 | 48.55219 | 0.63071 | 35086 ft | 410 kts | 165° |
| 2026-04-30 14:08 | 48.46973 | 0.66319 | 35084 ft | 412 kts | 164° |
| 2026-04-30 14:08 | 48.38669 | 0.69578 | 35084 ft | 413 kts | 164° |
| 2026-04-30 14:09 | 48.33092 | 0.71762 | 35084 ft | 414 kts | 165° |
| 2026-04-30 14:10 | 48.24709 | 0.75034 | 35088 ft | 415 kts | 164° |
| 2026-04-30 14:10 | 48.19118 | 0.77209 | 35075 ft | 415 kts | 165° |
| 2026-04-30 14:11 | 48.13536 | 0.79378 | 35060 ft | 414 kts | 165° |
| 2026-04-30 14:11 | 48.07956 | 0.81540 | 35084 ft | 414 kts | 165° |
| 2026-04-30 14:12 | 48.02410 | 0.83684 | 35070 ft | 414 kts | 165° |
| 2026-04-30 14:12 | 47.96831 | 0.85836 | 35064 ft | 413 kts | 165° |
| 2026-04-30 14:13 | 47.91264 | 0.87979 | 35083 ft | 413 kts | 165° |
| 2026-04-30 14:13 | 47.85696 | 0.90117 | 35081 ft | 413 kts | 165° |
| 2026-04-30 14:14 | 47.80115 | 0.92256 | 35062 ft | 414 kts | 165° |
| 2026-04-30 14:14 | 47.74515 | 0.93967 | 35077 ft | 414 kts | 169° |
| 2026-04-30 14:15 | 47.68809 | 0.95306 | 35060 ft | 415 kts | 170° |
| 2026-04-30 14:15 | 47.63110 | 0.96644 | 35075 ft | 415 kts | 170° |
| 2026-04-30 14:16 | 47.57419 | 0.98028 | 35079 ft | 415 kts | 169° |
| 2026-04-30 14:16 | 47.51711 | 0.99441 | 35056 ft | 415 kts | 169° |
| 2026-04-30 14:17 | 47.46018 | 1.00854 | 35075 ft | 415 kts | 169° |
| 2026-04-30 14:17 | 47.40351 | 1.02259 | 35072 ft | 415 kts | 169° |
| 2026-04-30 14:18 | 47.34665 | 1.03664 | 35074 ft | 414 kts | 169° |
| 2026-04-30 14:18 | 47.26147 | 1.05764 | 35079 ft | 413 kts | 169° |
| 2026-04-30 14:19 | 47.17636 | 1.07855 | 35076 ft | 412 kts | 169° |
| 2026-04-30 14:20 | 47.11972 | 1.09243 | 35084 ft | 412 kts | 169° |
| 2026-04-30 14:20 | 47.03528 | 1.11306 | 35093 ft | 412 kts | 169° |
| 2026-04-30 14:21 | 46.97869 | 1.12685 | 35095 ft | 412 kts | 169° |
| 2026-04-30 14:22 | 46.89378 | 1.14749 | 35085 ft | 413 kts | 169° |
| 2026-04-30 14:22 | 46.80867 | 1.16811 | 35091 ft | 413 kts | 169° |
| 2026-04-30 14:23 | 46.69502 | 1.19554 | 35103 ft | 414 kts | 169° |
| 2026-04-30 14:24 | 46.60977 | 1.21604 | 35097 ft | 414 kts | 169° |
| 2026-04-30 14:25 | 46.49636 | 1.24320 | 35110 ft | 414 kts | 169° |
| 2026-04-30 14:26 | 46.41102 | 1.26357 | 35104 ft | 414 kts | 169° |
| 2026-04-30 14:27 | 46.32560 | 1.28390 | 35114 ft | 414 kts | 170° |
| 2026-04-30 14:27 | 46.26913 | 1.29730 | 35116 ft | 413 kts | 170° |
| 2026-04-30 14:28 | 46.18414 | 1.31741 | 35115 ft | 412 kts | 170° |
| 2026-04-30 14:28 | 46.12760 | 1.33076 | 35123 ft | 411 kts | 170° |
| 2026-04-30 14:29 | 46.02459 | 1.35500 | 35122 ft | 409 kts | 170° |
| 2026-04-30 14:31 | 45.87519 | 1.39001 | 35130 ft | 408 kts | 170° |
| 2026-04-30 14:31 | 45.79099 | 1.40965 | 35124 ft | 409 kts | 170° |
| 2026-04-30 14:32 | 45.70668 | 1.42926 | 35130 ft | 410 kts | 171° |
| 2026-04-30 14:33 | 45.65019 | 1.44237 | 35136 ft | 411 kts | 171° |
| 2026-04-30 14:33 | 45.56587 | 1.46188 | 35123 ft | 412 kts | 171° |
| 2026-04-30 14:34 | 45.50924 | 1.47495 | 35129 ft | 412 kts | 171° |
| 2026-04-30 14:34 | 45.45257 | 1.48800 | 35128 ft | 413 kts | 171° |
| 2026-04-30 14:35 | 45.36724 | 1.50761 | 34642 ft | 416 kts | 171° |
| 2026-04-30 14:35 | 45.33875 | 1.51414 | 34108 ft | 415 kts | 171° |
| 2026-04-30 14:36 | 45.31017 | 1.52068 | 33513 ft | 415 kts | 171° |
| 2026-04-30 14:36 | 45.28200 | 1.52713 | 32929 ft | 415 kts | 171° |
| 2026-04-30 14:36 | 45.25352 | 1.53364 | 32327 ft | 415 kts | 171° |
| 2026-04-30 14:36 | 45.22502 | 1.54014 | 31726 ft | 415 kts | 170° |
| 2026-04-30 14:37 | 45.19648 | 1.54665 | 31116 ft | 415 kts | 170° |
| 2026-04-30 14:37 | 45.16798 | 1.55315 | 30526 ft | 416 kts | 171° |
| 2026-04-30 14:37 | 45.13935 | 1.55967 | 29846 ft | 416 kts | 170° |
| 2026-04-30 14:37 | 45.11075 | 1.56618 | 29133 ft | 416 kts | 170° |
| 2026-04-30 14:38 | 45.08230 | 1.57264 | 28652 ft | 411 kts | 171° |
| 2026-04-30 14:38 | 45.05425 | 1.57901 | 28123 ft | 407 kts | 171° |
| 2026-04-30 14:38 | 45.02638 | 1.58533 | 27639 ft | 403 kts | 171° |
| 2026-04-30 14:38 | 44.99888 | 1.59156 | 27136 ft | 399 kts | 171° |
| 2026-04-30 14:39 | 44.97157 | 1.59774 | 26645 ft | 396 kts | 171° |
| 2026-04-30 14:39 | 44.94450 | 1.60387 | 26162 ft | 392 kts | 171° |
| 2026-04-30 14:39 | 44.91764 | 1.60994 | 25682 ft | 390 kts | 171° |
| 2026-04-30 14:40 | 44.86378 | 1.61334 | 24545 ft | 390 kts | 187° |
| 2026-04-30 14:40 | 44.83679 | 1.60808 | 23963 ft | 392 kts | 188° |
| 2026-04-30 14:40 | 44.80978 | 1.60273 | 23264 ft | 393 kts | 188° |
| 2026-04-30 14:40 | 44.78296 | 1.59747 | 22513 ft | 394 kts | 188° |
| 2026-04-30 14:41 | 44.75575 | 1.59222 | 21790 ft | 395 kts | 188° |
| 2026-04-30 14:41 | 44.72857 | 1.58704 | 21081 ft | 394 kts | 187° |
| 2026-04-30 14:41 | 44.70138 | 1.58192 | 20384 ft | 394 kts | 187° |
| 2026-04-30 14:41 | 44.67451 | 1.57689 | 19829 ft | 385 kts | 187° |
| 2026-04-30 14:42 | 44.64805 | 1.57197 | 19338 ft | 381 kts | 187° |
| 2026-04-30 14:42 | 44.62190 | 1.56711 | 18861 ft | 377 kts | 187° |
| 2026-04-30 14:42 | 44.59591 | 1.56228 | 18346 ft | 375 kts | 187° |
| 2026-04-30 14:42 | 44.57032 | 1.55754 | 17817 ft | 371 kts | 187° |
| 2026-04-30 14:43 | 44.54475 | 1.55281 | 17319 ft | 366 kts | 187° |
| 2026-04-30 14:43 | 44.51960 | 1.54815 | 16839 ft | 362 kts | 187° |
| 2026-04-30 14:43 | 44.49474 | 1.54355 | 16384 ft | 358 kts | 187° |
| 2026-04-30 14:43 | 44.47015 | 1.53901 | 15924 ft | 356 kts | 187° |
| 2026-04-30 14:44 | 44.44562 | 1.53448 | 15465 ft | 353 kts | 187° |
| 2026-04-30 14:44 | 44.42126 | 1.52999 | 15021 ft | 353 kts | 187° |
| 2026-04-30 14:44 | 44.39696 | 1.52551 | 14586 ft | 353 kts | 187° |
| 2026-04-30 14:44 | 44.37257 | 1.52101 | 14122 ft | 352 kts | 187° |
| 2026-04-30 14:45 | 44.34862 | 1.51661 | 13651 ft | 350 kts | 187° |
| 2026-04-30 14:45 | 44.32456 | 1.51218 | 13161 ft | 347 kts | 187° |
| 2026-04-30 14:45 | 44.30063 | 1.50779 | 12694 ft | 345 kts | 187° |
| 2026-04-30 14:45 | 44.27698 | 1.50345 | 12237 ft | 342 kts | 187° |
| 2026-04-30 14:46 | 44.25343 | 1.49913 | 11799 ft | 340 kts | 187° |
| 2026-04-30 14:46 | 44.23011 | 1.49485 | 11368 ft | 338 kts | 187° |
| 2026-04-30 14:46 | 44.20683 | 1.49059 | 10913 ft | 337 kts | 188° |
| 2026-04-30 14:46 | 44.19141 | 1.48776 | 10607 ft | 336 kts | 188° |
| 2026-04-30 14:47 | 44.16190 | 1.47482 | 9978 ft | 330 kts | 208° |
| 2026-04-30 14:47 | 44.14243 | 1.45905 | 9488 ft | 318 kts | 211° |
| 2026-04-30 14:47 | 44.12384 | 1.44309 | 8989 ft | 313 kts | 211° |
| 2026-04-30 14:47 | 44.10534 | 1.42698 | 8478 ft | 314 kts | 211° |
| 2026-04-30 14:48 | 44.08712 | 1.41100 | 8043 ft | 303 kts | 211° |
| 2026-04-30 14:48 | 44.06970 | 1.39560 | 7712 ft | 290 kts | 211° |
| 2026-04-30 14:48 | 44.05304 | 1.38078 | 7386 ft | 279 kts | 211° |
| 2026-04-30 14:48 | 44.03696 | 1.36641 | 7084 ft | 269 kts | 211° |
| 2026-04-30 14:49 | 44.02126 | 1.35231 | 6799 ft | 268 kts | 212° |
| 2026-04-30 14:49 | 44.00586 | 1.33840 | 6534 ft | 267 kts | 211° |
| 2026-04-30 14:49 | 43.99052 | 1.32441 | 6200 ft | 260 kts | 211° |
| 2026-04-30 14:49 | 43.97554 | 1.31064 | 5879 ft | 257 kts | 211° |
| 2026-04-30 14:50 | 43.94584 | 1.28310 | 5346 ft | 254 kts | 211° |
| 2026-04-30 14:50 | 43.93141 | 1.26954 | 5228 ft | 247 kts | 211° |
| 2026-04-30 14:51 | 43.90351 | 1.24293 | 4964 ft | 241 kts | 211° |
| 2026-04-30 14:51 | 43.88976 | 1.22968 | 4842 ft | 240 kts | 212° |
| 2026-04-30 14:51 | 43.86721 | 1.20783 | 4613 ft | 235 kts | 212° |
| 2026-04-30 14:52 | 43.85375 | 1.19480 | 4528 ft | 236 kts | 211° |
| 2026-04-30 14:52 | 43.82762 | 1.17093 | 4345 ft | 212 kts | 195° |
| 2026-04-30 14:52 | 43.81399 | 1.17166 | 4222 ft | 191 kts | 151° |
| 2026-04-30 14:53 | 43.79244 | 1.19211 | 4087 ft | 189 kts | 143° |
| 2026-04-30 14:53 | 43.78169 | 1.20291 | 3851 ft | 191 kts | 142° |
| 2026-04-30 14:54 | 43.76074 | 1.22460 | 3373 ft | 185 kts | 142° |
| 2026-04-30 14:54 | 43.74068 | 1.24546 | 2873 ft | 176 kts | 142° |
| 2026-04-30 14:55 | 43.72171 | 1.26518 | 2428 ft | 164 kts | 142° |
| 2026-04-30 14:55 | 43.71273 | 1.27453 | 2213 ft | 159 kts | 142° |
| 2026-04-30 14:55 | 43.69513 | 1.29283 | 1799 ft | 160 kts | 142° |
| 2026-04-30 14:56 | 43.67787 | 1.31080 | 1380 ft | 155 kts | 142° |
| 2026-04-30 14:56 | 43.66115 | 1.32820 | 934 ft | 152 kts | 142° |
| 2026-04-30 14:57 | 43.65259 | 1.33704 | 748 ft | 153 kts | 141° |
| 2026-04-30 14:57 | 43.63601 | 1.35437 | 493 ft | 125 kts | 143° |
| 2026-04-30 14:58 | 43.62754 | 1.36321 | 489 ft | 54 kts | 143° |
| 2026-04-30 14:58 | 43.62482 | 1.36602 | 493 ft | 33 kts | 143° |
| 2026-04-30 14:58 | 43.62464 | 1.36913 | 491 ft | 19 kts | 82° |
| 2026-04-30 14:59 | 43.62500 | 1.37230 | 493 ft | 13 kts | 62° |
| 2026-04-30 15:00 | 43.62613 | 1.37243 | 493 ft | 11 kts | 321° |
| 2026-04-30 15:00 | 43.62740 | 1.37109 | 493 ft | 18 kts | 324° |
| 2026-04-30 15:01 | 43.63001 | 1.36837 | 493 ft | 21 kts | 323° |
| 2026-04-30 15:01 | 43.63111 | 1.36723 | 493 ft | 18 kts | 323° |
| 2026-04-30 15:01 | 43.63241 | 1.36631 | 493 ft | 11 kts | 19° |
| 2026-04-30 15:02 | 43.63289 | 1.36722 | 487 ft | 13 kts | 57° |
| 2026-04-30 15:02 | 43.63340 | 1.36817 | 485 ft | 10 kts | 52° |
| 2026-04-30 15:03 | 43.63306 | 1.36958 | 493 ft | 0 kts | 132° |